CheckWX is a tool to help pilots better visualize weather data.  It is not intended as a substitute for an official pre-flight weather briefing.

12:48:43 UTC

KADS METAR
Addison Airport
Dallas, Texas, USA
Current

57 mins ago

KADS 221152Z 10014G26KT 2SM -RA OVC003 08/07 A2995
Observed
Feb-22 @ 11:52 UTC
Wind
  • 100° at 14 KTS
  • Gusting to KTS
Visibility
2 SM
Flight Rules
LIFR
Conditions
Light Rain
Cloud Levels
  • Overcast at 300' AGL
Temperature
C / 46°F
Dewpoint
C / 45°F
Humidity
93%
Altimeter
29.95" Hg
Pressure
1014.22 hPa
Previous

2 hours ago

KADS 221035Z AUTO 10009KT 4SM BR OVC003 07/07 A2998 RMK AO2 T00730067
Observed
Feb-22 @ 10:35 UTC
Wind
  • 100° at 9 KTS
Visibility
4 SM
Flight Rules
LIFR
Conditions
Mist
Cloud Levels
  • Overcast at 300' AGL
Temperature
C / 45°F
Dewpoint
C / 45°F
Humidity
100%
Altimeter
29.98" Hg
Pressure
1015.22 hPa
Previous

3 hours ago

KADS 221015Z AUTO 09010G17KT 5SM BR OVC005 07/07 A2998 RMK AO2 T00730066
Observed
Feb-22 @ 10:15 UTC
Wind
  • 090° at 10 KTS
  • Gusting to KTS
Visibility
5 SM
Flight Rules
IFR
Conditions
Mist
Cloud Levels
  • Overcast at 500' AGL
Temperature
C / 45°F
Dewpoint
C / 45°F
Humidity
100%
Altimeter
29.98" Hg
Pressure
1015.22 hPa